createdAt,value
2019-02-08T00:00:01.977Z,99990.08
2019-02-08T00:00:33.241Z,99993.97
2019-02-08T00:01:10.339Z,99992.67
2019-02-08T00:01:41.571Z,99991.36
2019-02-08T00:02:12.762Z,99989.22
2019-02-08T00:02:44.004Z,99993.10
2019-02-08T00:03:15.218Z,99993.95
2019-02-08T00:03:46.457Z,99987.92
2019-02-08T00:04:17.670Z,99992.67
2019-02-08T00:04:48.881Z,99987.94
2019-02-08T00:05:20.115Z,99992.67
2019-02-08T00:05:51.384Z,99990.94
2019-02-08T00:06:22.893Z,99989.21
2019-02-08T00:06:54.092Z,99987.92
2019-02-08T00:07:25.303Z,99988.78
2019-02-08T00:07:56.507Z,99991.81
2019-02-08T00:08:27.722Z,99986.63
2019-02-08T00:08:58.926Z,99987.48
2019-02-08T00:09:30.219Z,99989.66
2019-02-08T00:10:01.478Z,99989.19
2019-02-08T00:10:33.074Z,99984.46
2019-02-08T00:11:04.287Z,99987.48
2019-02-08T00:11:35.492Z,99988.78
2019-02-08T00:12:07.218Z,99990.07
2019-02-08T00:12:38.401Z,99991.38
2019-02-08T00:13:09.602Z,99991.36
2019-02-08T00:13:40.811Z,99984.91
2019-02-08T00:14:12.018Z,99986.20
2019-02-08T00:14:43.224Z,99984.91
2019-02-08T00:15:14.454Z,99991.36
2019-02-08T00:15:45.711Z,99985.75
2019-02-08T00:16:16.923Z,99981.02
2019-02-08T00:16:48.406Z,99985.77
2019-02-08T00:17:19.682Z,99985.32
2019-02-08T00:17:50.902Z,99989.19
2019-02-08T00:18:22.106Z,99984.47
2019-02-08T00:18:53.318Z,99985.77
2019-02-08T00:19:24.523Z,99986.61
2019-02-08T00:19:55.736Z,99982.75
2019-02-08T00:20:26.944Z,99982.30
2019-02-08T00:20:58.208Z,99980.13
2019-02-08T00:21:29.427Z,99979.28
2019-02-08T00:22:00.629Z,99983.58
2019-02-08T00:22:32.202Z,99979.70
2019-02-08T00:23:03.411Z,99980.98
2019-02-08T00:23:34.608Z,99980.58
2019-02-08T00:24:05.803Z,99983.16
2019-02-08T00:24:37.000Z,99980.98
2019-02-08T00:25:08.267Z,99971.52
2019-02-08T00:25:39.476Z,99979.72
2019-02-08T00:26:10.664Z,99977.52
2019-02-08T00:26:41.847Z,99974.52
2019-02-08T00:27:13.223Z,99978.39
2019-02-08T00:27:44.421Z,99973.64
2019-02-08T00:28:15.697Z,99980.07
2019-02-08T00:28:46.908Z,99980.51
2019-02-08T00:29:18.105Z,99980.51
2019-02-08T00:29:49.303Z,99979.67
2019-02-08T00:30:20.568Z,99979.64
2019-02-08T00:30:51.764Z,99974.50
2019-02-08T00:31:23.010Z,99974.50
2019-02-08T00:31:54.215Z,99975.35
2019-02-08T00:32:25.420Z,99974.92
2019-02-08T00:32:56.887Z,99976.62
2019-02-08T00:33:28.072Z,99978.34
2019-02-08T00:33:59.289Z,99977.92
2019-02-08T00:34:30.489Z,99971.50
2019-02-08T00:35:01.698Z,99971.52
2019-02-08T00:35:32.903Z,99974.09
2019-02-08T00:36:04.108Z,99969.36
2019-02-08T00:36:35.346Z,99977.11
2019-02-08T00:37:06.559Z,99977.95
2019-02-08T00:37:37.752Z,99978.83
2019-02-08T00:38:08.951Z,99977.53
2019-02-08T00:38:40.417Z,99982.73
2019-02-08T00:39:11.620Z,99980.14
2019-02-08T00:39:42.839Z,99971.52
2019-02-08T00:40:14.073Z,99977.98
2019-02-08T00:40:45.273Z,99977.95
2019-02-08T00:41:16.493Z,99982.69
2019-02-08T00:41:47.713Z,99981.86
2019-02-08T00:42:18.925Z,99985.72
2019-02-08T00:42:50.142Z,99980.58
2019-02-08T00:43:21.528Z,99979.30
2019-02-08T00:43:52.746Z,99982.31
2019-02-08T00:44:24.000Z,99984.45
2019-02-08T00:44:55.214Z,99981.02
2019-02-08T00:45:26.472Z,99980.58
2019-02-08T00:45:57.694Z,99982.73
2019-02-08T00:46:28.905Z,99979.27
2019-02-08T00:47:00.162Z,99975.42
2019-02-08T00:47:31.382Z,99973.68
2019-02-08T00:48:02.605Z,99977.13
2019-02-08T00:48:33.814Z,99976.28
2019-02-08T00:49:05.390Z,99978.41
2019-02-08T00:49:36.608Z,99975.39
2019-02-08T00:50:07.816Z,99971.95
2019-02-08T00:50:39.047Z,99976.70
2019-02-08T00:51:10.255Z,99972.41
2019-02-08T00:51:41.490Z,99971.56
2019-02-08T00:52:12.712Z,99975.41
2019-02-08T00:52:43.951Z,99975.84
2019-02-08T00:53:15.162Z,99972.38
2019-02-08T00:53:46.364Z,99976.27
2019-02-08T00:54:17.573Z,99969.80
2019-02-08T00:54:49.162Z,99969.36
2019-02-08T00:55:20.369Z,99967.19
2019-02-08T00:55:51.576Z,99976.23
2019-02-08T00:56:22.827Z,99974.50
2019-02-08T00:56:54.055Z,99974.52
2019-02-08T00:57:25.254Z,99971.05
2019-02-08T00:57:56.458Z,99970.64
2019-02-08T00:58:27.893Z,99968.91
2019-02-08T00:58:59.101Z,99966.33
2019-02-08T00:59:30.492Z,99964.18
2019-02-08T01:00:01.699Z,99965.03
2019-02-08T01:00:32.916Z,99966.77
2019-02-08T01:01:04.128Z,99967.17
2019-02-08T01:01:35.348Z,99960.72
2019-02-08T01:02:06.561Z,99959.88
2019-02-08T01:02:37.830Z,99962.89
2019-02-08T01:03:09.079Z,99965.03
2019-02-08T01:03:40.289Z,99966.78
2019-02-08T01:04:11.518Z,99960.33
2019-02-08T01:04:42.721Z,99958.61
2019-02-08T01:05:14.209Z,99957.31
2019-02-08T01:05:45.428Z,99956.89
2019-02-08T01:06:16.631Z,99958.18
2019-02-08T01:06:47.856Z,99959.04
2019-02-08T01:07:19.087Z,99955.58
2019-02-08T01:07:50.358Z,99956.02
2019-02-08T01:08:21.554Z,99942.66
2019-02-08T01:08:52.767Z,99953.84
2019-02-08T01:09:23.975Z,99955.16
2019-02-08T01:09:55.454Z,99949.55
2019-02-08T01:10:26.710Z,99949.98
2019-02-08T01:10:57.923Z,99950.41
2019-02-08T01:11:29.187Z,99947.81
2019-02-08T01:12:00.399Z,99949.97
2019-02-08T01:12:31.599Z,99955.13
2019-02-08T01:13:02.859Z,99953.86
2019-02-08T01:13:34.044Z,99948.69
2019-02-08T01:14:05.278Z,99951.27
2019-02-08T01:14:36.536Z,99950.83
2019-02-08T01:15:07.747Z,99946.54
2019-02-08T01:15:39.319Z,99949.14
2019-02-08T01:16:10.532Z,99948.70
2019-02-08T01:16:41.735Z,99946.97
2019-02-08T01:17:12.953Z,99945.67
2019-02-08T01:17:44.194Z,99950.42
2019-02-08T01:18:15.413Z,99951.28
2019-02-08T01:18:46.616Z,99947.42
2019-02-08T01:19:17.817Z,99949.56
2019-02-08T01:19:49.078Z,99946.97
2019-02-08T01:20:20.278Z,99948.70
2019-02-08T01:20:51.486Z,99942.67
2019-02-08T01:21:22.975Z,99944.84
2019-02-08T01:21:54.182Z,99947.41
2019-02-08T01:22:25.407Z,99941.41
2019-02-08T01:22:56.646Z,99942.70
2019-02-08T01:23:27.859Z,99938.38
2019-02-08T01:23:59.106Z,99945.28
2019-02-08T01:24:30.307Z,99942.25
2019-02-08T01:25:01.522Z,99946.54
2019-02-08T01:25:32.722Z,99945.27
2019-02-08T01:26:03.948Z,99943.53
2019-02-08T01:26:35.162Z,99940.09
2019-02-08T01:27:06.360Z,99942.27
2019-02-08T01:27:37.571Z,99940.97
2019-02-08T01:28:08.782Z,99943.12
2019-02-08T01:28:40.011Z,99940.08
2019-02-08T01:29:11.205Z,99942.67
2019-02-08T01:29:42.420Z,99940.52
2019-02-08T01:30:13.636Z,99938.36
2019-02-08T01:30:44.844Z,99939.68
2019-02-08T01:31:16.079Z,99937.50
2019-02-08T01:31:47.343Z,99931.92
2019-02-08T01:32:18.566Z,99931.91
2019-02-08T01:32:49.788Z,99941.82
2019-02-08T01:33:21.053Z,99934.48
2019-02-08T01:33:52.254Z,99934.92
2019-02-08T01:34:23.453Z,99937.95
2019-02-08T01:34:54.661Z,99938.38
2019-02-08T01:35:25.871Z,99934.50
2019-02-08T01:35:57.066Z,99939.25
2019-02-08T01:36:28.315Z,99935.39
2019-02-08T01:36:59.525Z,99937.53
2019-02-08T01:37:30.751Z,99934.95
2019-02-08T01:38:01.965Z,99939.67
2019-02-08T01:38:33.167Z,99935.80
2019-02-08T01:39:04.373Z,99937.09
2019-02-08T01:39:35.582Z,99938.83
2019-02-08T01:40:06.832Z,99934.48
2019-02-08T01:40:38.048Z,99937.52
2019-02-08T01:41:09.267Z,99933.62
2019-02-08T01:41:40.518Z,99934.06
2019-02-08T01:42:11.723Z,99935.33
2019-02-08T01:42:42.934Z,99939.22
2019-02-08T01:43:14.136Z,99932.32
2019-02-08T01:43:45.339Z,99936.61
2019-02-08T01:44:16.548Z,99936.60
2019-02-08T01:44:47.740Z,99934.04
2019-02-08T01:45:18.963Z,99935.33
2019-02-08T01:45:50.556Z,99937.06
2019-02-08T01:46:21.781Z,99939.64
2019-02-08T01:46:52.982Z,99939.20
2019-02-08T01:47:24.185Z,99937.94
2019-02-08T01:47:55.417Z,99938.78
2019-02-08T01:48:26.629Z,99938.83
2019-02-08T01:48:57.851Z,99936.22
2019-02-08T01:49:29.089Z,99936.66
2019-02-08T01:50:00.293Z,99937.97
2019-02-08T01:50:31.488Z,99932.37
2019-02-08T01:51:02.701Z,99934.52
2019-02-08T01:51:33.946Z,99936.22
2019-02-08T01:52:05.197Z,99937.52
2019-02-08T01:52:36.379Z,99931.91
2019-02-08T01:53:07.592Z,99932.34
2019-02-08T01:53:38.801Z,99935.81
2019-02-08T01:54:10.007Z,99931.91
2019-02-08T01:54:41.211Z,99931.05
2019-02-08T01:55:12.445Z,99933.62
2019-02-08T01:55:43.710Z,99929.34
2019-02-08T01:56:14.939Z,99932.77
2019-02-08T01:56:46.134Z,99931.47
2019-02-08T01:57:17.355Z,99931.48
2019-02-08T01:57:48.567Z,99929.32
2019-02-08T01:58:19.781Z,99933.20
2019-02-08T01:58:51.037Z,99931.91
2019-02-08T01:59:22.253Z,99933.60
2019-02-08T01:59:53.453Z,99934.49
2019-02-08T02:00:24.669Z,99933.19
2019-02-08T02:00:55.876Z,99930.59
2019-02-08T02:01:27.087Z,99932.75
2019-02-08T02:01:58.291Z,99931.45
2019-02-08T02:02:29.548Z,99933.59
2019-02-08T02:03:00.759Z,99932.77
2019-02-08T02:03:31.962Z,99884.52
2019-02-08T02:04:03.186Z,99931.47
2019-02-08T02:04:34.409Z,99925.87
2019-02-08T02:05:05.619Z,99929.30
2019-02-08T02:05:36.843Z,99935.33
2019-02-08T02:06:08.044Z,99932.31
2019-02-08T02:06:39.242Z,99925.00
2019-02-08T02:07:10.452Z,99922.84
2019-02-08T02:07:41.713Z,99924.99
2019-02-08T02:08:12.921Z,99926.28
2019-02-08T02:08:44.121Z,99927.16
2019-02-08T02:09:15.339Z,99931.04
2019-02-08T02:09:46.540Z,99929.74
2019-02-08T02:10:20.170Z,99925.87
2019-02-08T02:10:51.385Z,99925.87
2019-02-08T02:11:22.597Z,99923.29
2019-02-08T02:11:53.806Z,99925.84
2019-02-08T02:12:25.026Z,99924.55
2019-02-08T02:12:56.280Z,99920.25
2019-02-08T02:13:27.481Z,99924.54
2019-02-08T02:13:58.689Z,99921.94
2019-02-08T02:14:29.897Z,99927.52
2019-02-08T02:15:01.118Z,99924.11
2019-02-08T02:15:32.327Z,99930.97
2019-02-08T02:16:04.165Z,99924.52
2019-02-08T02:16:35.583Z,99924.11
2019-02-08T02:17:06.792Z,99922.81
2019-02-08T02:17:37.988Z,99927.10
2019-02-08T02:18:09.220Z,99923.23
2019-02-08T02:18:40.437Z,99924.08
2019-02-08T02:19:11.650Z,99921.95
2019-02-08T02:19:42.861Z,99922.80
2019-02-08T02:20:14.098Z,99924.09
2019-02-08T02:20:47.542Z,99923.23
2019-02-08T02:21:18.748Z,99923.25
2019-02-08T02:21:49.985Z,99925.39
2019-02-08T02:22:21.201Z,99923.68
2019-02-08T02:22:52.461Z,99927.14
2019-02-08T02:23:23.692Z,99927.14
2019-02-08T02:23:56.099Z,99927.12
2019-02-08T02:24:27.677Z,99926.25
2019-02-08T02:24:58.885Z,99925.39
2019-02-08T02:25:30.099Z,99924.52
2019-02-08T02:26:01.299Z,99926.69
2019-02-08T02:26:32.535Z,99928.83
2019-02-08T02:27:03.739Z,99928.83
2019-02-08T02:27:34.949Z,99923.67
2019-02-08T02:28:06.205Z,99921.51
2019-02-08T02:28:37.468Z,99923.22
2019-02-08T02:29:08.664Z,99923.19
2019-02-08T02:29:39.945Z,99928.80
2019-02-08T02:30:11.158Z,99925.77
2019-02-08T02:30:42.375Z,99930.50
2019-02-08T02:31:13.609Z,99925.33
2019-02-08T02:31:44.801Z,99931.38
2019-02-08T02:32:16.014Z,99924.46
2019-02-08T02:32:47.226Z,99921.47
2019-02-08T02:33:18.493Z,99924.45
2019-02-08T02:33:49.690Z,99930.48
2019-02-08T02:34:20.937Z,99928.31
2019-02-08T02:34:52.276Z,99924.00
2019-02-08T02:35:23.481Z,99927.44
2019-02-08T02:35:54.713Z,99922.69
2019-02-08T02:36:25.919Z,99935.59
2019-02-08T02:36:57.122Z,99924.83
2019-02-08T02:37:28.337Z,99929.58
2019-02-08T02:37:59.571Z,99929.14
2019-02-08T02:38:30.775Z,99930.86
2019-02-08T02:39:01.977Z,99927.88
2019-02-08T02:39:33.201Z,99928.75
2019-02-08T02:40:04.447Z,99927.87
2019-02-08T02:40:35.644Z,99930.89
2019-02-08T02:41:06.857Z,99928.75
2019-02-08T02:41:38.066Z,99932.62
2019-02-08T02:42:09.276Z,99927.89
2019-02-08T02:42:40.490Z,99930.47
2019-02-08T02:43:11.705Z,99926.20
2019-02-08T02:43:42.916Z,99926.20
2019-02-08T02:44:14.123Z,99930.06
2019-02-08T02:44:45.346Z,99933.50
2019-02-08T02:45:17.484Z,99928.75
2019-02-08T02:45:48.687Z,99934.76
2019-02-08T02:46:19.909Z,99928.30
2019-02-08T02:46:51.105Z,99929.60
2019-02-08T02:47:22.312Z,99929.59
2019-02-08T02:47:53.539Z,99929.16
2019-02-08T02:48:24.793Z,99929.58
2019-02-08T02:48:55.999Z,99930.87
2019-02-08T02:49:27.208Z,99933.45
2019-02-08T02:49:58.411Z,99935.61
2019-02-08T02:50:29.633Z,99936.03
2019-02-08T02:51:00.890Z,99934.70
2019-02-08T02:51:32.110Z,99935.56
2019-02-08T02:52:03.317Z,99940.72
2019-02-08T02:52:34.529Z,99938.58
2019-02-08T02:53:05.739Z,99938.17
2019-02-08T02:53:36.939Z,99934.73
2019-02-08T02:54:08.141Z,99933.03
2019-02-08T02:54:39.375Z,99939.48
2019-02-08T02:55:10.582Z,99939.08
2019-02-08T02:55:41.799Z,99940.36
2019-02-08T02:56:13.056Z,99932.20
2019-02-08T02:56:44.260Z,99938.22
2019-02-08T02:57:15.473Z,99938.22
2019-02-08T02:57:46.682Z,99941.23
2019-02-08T02:58:17.882Z,99933.94
2019-02-08T02:58:49.088Z,99933.92
2019-02-08T02:59:20.299Z,99934.81
2019-02-08T02:59:51.494Z,99936.09
2019-02-08T03:00:22.708Z,99930.53
2019-02-08T03:00:53.900Z,99932.72
2019-02-08T03:01:26.136Z,99936.58
2019-02-08T03:01:57.336Z,99931.42
2019-02-08T03:02:28.540Z,99936.61
2019-02-08T03:02:59.744Z,99931.00
2019-02-08T03:03:30.941Z,99931.00
2019-02-08T03:04:02.145Z,99935.75
2019-02-08T03:04:33.346Z,99934.45
2019-02-08T03:05:04.546Z,99931.88
2019-02-08T03:05:35.742Z,99936.61
2019-02-08T03:06:06.995Z,99936.61
2019-02-08T03:06:38.228Z,99934.02
2019-02-08T03:07:09.548Z,99929.29
2019-02-08T03:07:40.781Z,99937.47
2019-02-08T03:08:11.997Z,99934.03
2019-02-08T03:08:43.301Z,99937.05
2019-02-08T03:09:14.564Z,99937.05
2019-02-08T03:09:45.780Z,99935.34
2019-02-08T03:10:17.008Z,99934.05
2019-02-08T03:10:48.230Z,99935.78
2019-02-08T03:11:19.445Z,99938.36
2019-02-08T03:11:50.647Z,99932.33
2019-02-08T03:12:22.234Z,99933.16
2019-02-08T03:12:53.459Z,99932.75
2019-02-08T03:13:24.718Z,99933.60
2019-02-08T03:13:57.021Z,99937.03
2019-02-08T03:14:28.231Z,99936.17
2019-02-08T03:14:59.430Z,99938.35
2019-02-08T03:15:30.647Z,99934.88
2019-02-08T03:16:01.864Z,99936.19
2019-02-08T03:16:33.079Z,99933.20
2019-02-08T03:17:04.296Z,99931.06
2019-02-08T03:17:35.491Z,99933.22
2019-02-08T03:18:06.698Z,99932.78
2019-02-08T03:18:37.945Z,99939.24
2019-02-08T03:19:09.148Z,99931.07
2019-02-08T03:19:40.348Z,99937.52
2019-02-08T03:20:11.561Z,99942.69
2019-02-08T03:20:42.775Z,99938.83
2019-02-08T03:21:13.979Z,99938.81
2019-02-08T03:21:45.183Z,99935.38
2019-02-08T03:22:16.390Z,99936.66
2019-02-08T03:22:49.852Z,99934.94
2019-02-08T03:23:21.052Z,99929.77
2019-02-08T03:23:52.322Z,99937.95
2019-02-08T03:24:23.533Z,99934.52
2019-02-08T03:24:54.753Z,99940.11
2019-02-08T03:25:28.379Z,99940.98
2019-02-08T03:25:59.605Z,99941.41
2019-02-08T03:26:30.827Z,99940.98
2019-02-08T03:27:02.031Z,99943.58
2019-02-08T03:27:33.241Z,99940.13
2019-02-08T03:28:04.451Z,99943.58
2019-02-08T03:28:35.666Z,99943.14
2019-02-08T03:29:06.878Z,99937.55
2019-02-08T03:29:38.131Z,99940.98
2019-02-08T03:30:09.351Z,99941.42
2019-02-08T03:30:40.559Z,99940.98
2019-02-08T03:31:11.784Z,99940.99
2019-02-08T03:31:42.995Z,99948.30
2019-02-08T03:32:14.224Z,99940.98
2019-02-08T03:32:45.403Z,99940.13
2019-02-08T03:33:16.660Z,99938.38
2019-02-08T03:33:47.849Z,99938.84
2019-02-08T03:34:19.090Z,99936.67
2019-02-08T03:34:50.301Z,99941.84
2019-02-08T03:35:21.508Z,99940.98
2019-02-08T03:35:54.513Z,99937.09
2019-02-08T03:36:25.721Z,99944.41
2019-02-08T03:36:56.936Z,99941.85
2019-02-08T03:37:28.166Z,99937.97
2019-02-08T03:37:59.417Z,99939.67
2019-02-08T03:38:30.673Z,99941.40
2019-02-08T03:39:01.889Z,99938.40
2019-02-08T03:39:33.086Z,99938.83
2019-02-08T03:40:04.281Z,99942.70
2019-02-08T03:40:35.500Z,99939.27
2019-02-08T03:41:06.734Z,99943.98
2019-02-08T03:41:37.940Z,99942.70
2019-02-08T03:42:09.141Z,99937.12
2019-02-08T03:42:40.341Z,99947.02
2019-02-08T03:43:11.551Z,99946.14
2019-02-08T03:43:42.802Z,99947.86
2019-02-08T03:44:14.016Z,99940.98
2019-02-08T03:44:45.242Z,99943.53
2019-02-08T03:45:16.447Z,99941.83
2019-02-08T03:45:47.696Z,99940.55
2019-02-08T03:46:18.906Z,99939.25
2019-02-08T03:46:50.101Z,99943.98
2019-02-08T03:47:21.325Z,99943.13
2019-02-08T03:47:52.521Z,99941.84
2019-02-08T03:48:23.732Z,99942.70
2019-02-08T03:48:54.939Z,99940.95
2019-02-08T03:49:26.153Z,99939.67
2019-02-08T03:49:57.346Z,99946.98
2019-02-08T03:50:28.872Z,99946.97
2019-02-08T03:51:00.140Z,99939.22
2019-02-08T03:51:31.337Z,99944.83
2019-02-08T03:52:02.562Z,99943.52
2019-02-08T03:52:33.757Z,99949.55
2019-02-08T03:53:04.965Z,99948.27
2019-02-08T03:53:36.169Z,99945.23
2019-02-08T03:54:07.396Z,99945.23
2019-02-08T03:54:38.595Z,99946.13
2019-02-08T03:55:09.799Z,99943.08
2019-02-08T03:55:41.005Z,99946.95
2019-02-08T03:56:12.257Z,99943.09
2019-02-08T03:56:43.473Z,99940.52
2019-02-08T03:57:14.687Z,99946.11
2019-02-08T03:57:45.887Z,99941.38
2019-02-08T03:58:17.095Z,99939.20
2019-02-08T03:58:48.313Z,99941.81
2019-02-08T03:59:19.520Z,99944.84
2019-02-08T03:59:50.815Z,99943.55
2019-02-08T04:00:22.022Z,99940.09
2019-02-08T04:00:53.251Z,99946.98
2019-02-08T04:01:24.460Z,99945.69
2019-02-08T04:01:55.703Z,99942.66
2019-02-08T04:02:26.934Z,99946.53
2019-02-08T04:02:58.142Z,99941.80
2019-02-08T04:03:31.690Z,99941.80
2019-02-08T04:04:02.937Z,99942.23
2019-02-08T04:04:34.128Z,99942.68
2019-02-08T04:05:05.351Z,99939.66
2019-02-08T04:05:36.560Z,99940.09
2019-02-08T04:06:07.767Z,99938.79
2019-02-08T04:06:39.001Z,99937.92
2019-02-08T04:07:10.255Z,99936.62
2019-02-08T04:07:41.460Z,99940.06
2019-02-08T04:08:12.662Z,99942.66
2019-02-08T04:08:43.866Z,99935.77
2019-02-08T04:09:15.085Z,99939.20
2019-02-08T04:09:46.303Z,99940.05
2019-02-08T04:10:17.502Z,99938.77
2019-02-08T04:10:48.708Z,99933.17
2019-02-08T04:11:19.949Z,99937.45
2019-02-08T04:11:51.168Z,99934.45
2019-02-08T04:12:22.380Z,99934.45
2019-02-08T04:12:53.587Z,99932.30
2019-02-08T04:13:24.804Z,99930.13
2019-02-08T04:13:56.017Z,99933.59
2019-02-08T04:14:27.230Z,99932.70
2019-02-08T04:14:58.437Z,99928.86
2019-02-08T04:15:29.656Z,99929.30
2019-02-08T04:16:00.865Z,99930.14
2019-02-08T04:16:32.115Z,99931.46
2019-02-08T04:17:03.329Z,99933.60
2019-02-08T04:17:34.546Z,99927.14
2019-02-08T04:18:05.766Z,99930.58
2019-02-08T04:18:36.970Z,99927.13
2019-02-08T04:19:08.185Z,99928.42
2019-02-08T04:19:39.403Z,99926.70
2019-02-08T04:20:10.608Z,99930.58
2019-02-08T04:20:41.821Z,99925.39
2019-02-08T04:21:13.035Z,99929.70
2019-02-08T04:21:44.310Z,99929.70
2019-02-08T04:22:15.503Z,99928.85
2019-02-08T04:22:46.715Z,99925.84
2019-02-08T04:23:17.936Z,99926.67
2019-02-08T04:23:49.155Z,99931.42
2019-02-08T04:24:20.356Z,99925.85
2019-02-08T04:24:52.043Z,99932.30
2019-02-08T04:25:23.248Z,99932.30
2019-02-08T04:25:54.441Z,99932.30
2019-02-08T04:26:25.675Z,99931.02
2019-02-08T04:26:56.878Z,99932.28
2019-02-08T04:27:28.076Z,99929.70
2019-02-08T04:27:59.275Z,99925.83
2019-02-08T04:28:30.511Z,99926.69
2019-02-08T04:29:02.517Z,99924.08
2019-02-08T04:29:33.707Z,99928.80
2019-02-08T04:30:04.907Z,99933.14
2019-02-08T04:30:36.106Z,99921.97
2019-02-08T04:31:07.301Z,99922.81
2019-02-08T04:31:38.498Z,99925.83
2019-02-08T04:32:09.698Z,99927.11
2019-02-08T04:32:40.897Z,99924.13
2019-02-08T04:33:12.087Z,99923.69
2019-02-08T04:33:43.281Z,99924.56
2019-02-08T04:34:14.548Z,99927.61
2019-02-08T04:34:45.765Z,99926.28
2019-02-08T04:35:16.955Z,99924.13
2019-02-08T04:35:48.190Z,99918.56
2019-02-08T04:36:19.438Z,99926.31
2019-02-08T04:36:50.684Z,99925.00
2019-02-08T04:37:21.905Z,99920.69
2019-02-08T04:37:53.098Z,99920.25
2019-02-08T04:38:24.300Z,99925.42
2019-02-08T04:38:55.505Z,99924.56
2019-02-08T04:39:26.712Z,99925.44
2019-02-08T04:39:57.915Z,99918.98
2019-02-08T04:40:29.211Z,99919.83
2019-02-08T04:41:00.406Z,99921.98
2019-02-08T04:41:31.609Z,99922.83
2019-02-08T04:42:02.835Z,99930.14
2019-02-08T04:42:34.032Z,99922.39
2019-02-08T04:43:05.240Z,99924.55
2019-02-08T04:43:36.450Z,99918.53
2019-02-08T04:44:07.651Z,99924.58
2019-02-08T04:44:38.856Z,99922.84
2019-02-08T04:45:10.066Z,99916.83
2019-02-08T04:45:41.299Z,99922.42
2019-02-08T04:46:12.505Z,99925.00
2019-02-08T04:46:43.711Z,99918.55
2019-02-08T04:47:14.996Z,99922.42
2019-02-08T04:47:46.177Z,99916.81
2019-02-08T04:48:17.379Z,99919.84
2019-02-08T04:48:48.617Z,99920.69
2019-02-08T04:49:19.807Z,99921.12
2019-02-08T04:49:51.021Z,99919.39
2019-02-08T04:50:22.226Z,99917.25
2019-02-08T04:50:53.441Z,99919.41
2019-02-08T04:51:25.775Z,99920.29
2019-02-08T04:51:57.130Z,99915.10
2019-02-08T04:52:28.371Z,99914.70
2019-02-08T04:52:59.627Z,99920.73
2019-02-08T04:53:30.836Z,99912.13
2019-02-08T04:54:02.101Z,99919.01
2019-02-08T04:54:38.442Z,99915.58
2019-02-08T04:55:06.237Z,99913.41
2019-02-08T04:55:37.445Z,99916.41
2019-02-08T04:56:08.664Z,99917.28
2019-02-08T04:56:39.873Z,99922.44
2019-02-08T04:57:11.072Z,99923.28
2019-02-08T04:57:42.314Z,99922.00
2019-02-08T04:58:13.542Z,99923.33
2019-02-08T04:58:44.743Z,99918.56
2019-02-08T04:59:15.944Z,99917.70
2019-02-08T04:59:47.151Z,99918.59
2019-02-08T05:00:18.360Z,99913.83
2019-02-08T05:00:49.569Z,99922.00
2019-02-08T05:01:20.778Z,99914.27
2019-02-08T05:01:51.984Z,99918.98
2019-02-08T05:02:23.177Z,99919.00
2019-02-08T05:02:54.396Z,99919.84
2019-02-08T05:03:25.647Z,99916.83
2019-02-08T05:03:56.931Z,99916.41
2019-02-08T05:04:28.141Z,99924.60
2019-02-08T05:04:59.345Z,99920.73
2019-02-08T05:05:30.578Z,99923.30
2019-02-08T05:06:01.787Z,99921.16
2019-02-08T05:06:33.003Z,99922.02
2019-02-08T05:07:04.195Z,99920.28
2019-02-08T05:07:35.388Z,99921.17
2019-02-08T05:08:06.587Z,99920.73
2019-02-08T05:08:37.786Z,99922.88
2019-02-08T05:09:09.088Z,99925.05
2019-02-08T05:09:40.278Z,99923.30
2019-02-08T05:10:11.465Z,99924.60
2019-02-08T05:10:42.709Z,99923.73
2019-02-08T05:11:13.896Z,99923.31
2019-02-08T05:11:45.114Z,99921.58
2019-02-08T05:12:16.320Z,99919.88
2019-02-08T05:12:47.518Z,99930.64
2019-02-08T05:13:18.734Z,99927.18
2019-02-08T05:13:49.931Z,99923.31
2019-02-08T05:14:21.139Z,99925.46
2019-02-08T05:14:52.372Z,99924.16
2019-02-08T05:15:23.583Z,99918.13
2019-02-08T05:15:54.769Z,99927.61
2019-02-08T05:16:25.960Z,99922.01
2019-02-08T05:16:57.174Z,99924.59
2019-02-08T05:17:28.399Z,99929.74
2019-02-08T05:17:59.675Z,99925.47
2019-02-08T05:18:30.906Z,99921.14
2019-02-08T05:19:02.115Z,99926.33
2019-02-08T05:19:33.318Z,99923.30
2019-02-08T05:20:04.518Z,99922.88
2019-02-08T05:20:35.718Z,99924.59
2019-02-08T05:21:06.927Z,99930.19
2019-02-08T05:21:38.129Z,99928.05
2019-02-08T05:22:09.323Z,99924.61
2019-02-08T05:22:40.528Z,99930.63
2019-02-08T05:23:11.752Z,99929.32
2019-02-08T05:23:43.012Z,99929.78
2019-02-08T05:24:14.227Z,99926.75
2019-02-08T05:24:46.154Z,99932.37
2019-02-08T05:25:18.334Z,99928.48
2019-02-08T05:25:49.544Z,99930.64
2019-02-08T05:26:20.757Z,99929.79
2019-02-08T05:26:51.962Z,99934.92
2019-02-08T05:27:23.190Z,99935.38
2019-02-08T05:27:54.436Z,99933.21
2019-02-08T05:28:25.641Z,99934.92
2019-02-08T05:28:56.893Z,99934.93
2019-02-08T05:29:28.096Z,99934.91
2019-02-08T05:29:59.311Z,99934.91
2019-02-08T05:30:30.537Z,99938.36
2019-02-08T05:31:01.742Z,99942.23
2019-02-08T05:31:32.951Z,99937.52
2019-02-08T05:32:04.150Z,99937.93
2019-02-08T05:32:35.353Z,99937.08
2019-02-08T05:33:06.553Z,99937.95
2019-02-08T05:33:37.758Z,99942.70
2019-02-08T05:34:09.026Z,99937.52
2019-02-08T05:34:40.224Z,99943.54
2019-02-08T05:35:11.432Z,99938.38
2019-02-08T05:35:42.647Z,99939.25
2019-02-08T05:36:13.848Z,99939.66
2019-02-08T05:36:45.048Z,99935.80
2019-02-08T05:37:16.248Z,99934.94
2019-02-08T05:37:47.437Z,99938.36
2019-02-08T05:38:18.653Z,99940.13
2019-02-08T05:38:49.885Z,99942.23
2019-02-08T05:39:21.171Z,99937.52
2019-02-08T05:39:52.373Z,99937.52
2019-02-08T05:40:23.572Z,99937.94
2019-02-08T05:40:54.786Z,99942.67
2019-02-08T05:41:25.976Z,99940.53
2019-02-08T05:41:57.177Z,99940.52
2019-02-08T05:42:28.394Z,99940.53
2019-02-08T05:42:59.590Z,99941.38
2019-02-08T05:43:30.800Z,99942.67
2019-02-08T05:44:01.997Z,99941.83
2019-02-08T05:44:33.243Z,99937.95
2019-02-08T05:45:04.473Z,99938.39
2019-02-08T05:45:35.749Z,99878.08
2019-02-08T05:46:06.991Z,99943.11
2019-02-08T05:46:38.243Z,99936.65
2019-02-08T05:47:09.456Z,99940.52
2019-02-08T05:47:40.657Z,99941.84
2019-02-08T05:48:11.877Z,99944.83
2019-02-08T05:48:43.082Z,99940.95
2019-02-08T05:49:14.300Z,99942.27
2019-02-08T05:49:45.516Z,99945.28
2019-02-08T05:50:16.702Z,99948.27
2019-02-08T05:50:47.925Z,99948.72
2019-02-08T05:51:19.130Z,99947.87
2019-02-08T05:51:50.377Z,99942.67
2019-02-08T05:52:21.594Z,99945.70
2019-02-08T05:52:52.837Z,99943.11
2019-02-08T05:53:24.074Z,99940.54
2019-02-08T05:53:55.291Z,99943.97
2019-02-08T05:54:26.495Z,99945.28
2019-02-08T05:54:57.695Z,99944.41
2019-02-08T05:55:28.902Z,99948.28
2019-02-08T05:56:00.146Z,99943.53
2019-02-08T05:56:31.362Z,99944.83
2019-02-08T05:57:02.550Z,99950.00
2019-02-08T05:57:33.743Z,99952.15
2019-02-08T05:58:04.967Z,99953.02
2019-02-08T05:58:36.138Z,99949.57
2019-02-08T05:59:07.345Z,99946.55
2019-02-08T05:59:38.551Z,99946.99
2019-02-08T06:00:09.772Z,99953.03
2019-02-08T06:00:41.037Z,99952.14
2019-02-08T06:01:12.248Z,99951.73
2019-02-08T06:01:43.465Z,99947.86
2019-02-08T06:02:14.677Z,99948.27
2019-02-08T06:02:45.948Z,99946.98
2019-02-08T06:03:17.162Z,99946.13
2019-02-08T06:03:48.381Z,99952.16
2019-02-08T06:04:19.595Z,99950.88
2019-02-08T06:04:50.797Z,99950.42
2019-02-08T06:05:22.021Z,99949.13
2019-02-08T06:05:53.309Z,99951.30
2019-02-08T06:06:24.510Z,99947.84
2019-02-08T06:06:55.718Z,99952.59